createdAt,value
2017-08-18T00:00:19.298Z,9.80
2017-08-18T00:02:46.794Z,10.48
2017-08-18T00:05:14.311Z,10.93
2017-08-18T00:07:41.810Z,10.65
2017-08-18T00:10:09.325Z,13.38
2017-08-18T00:12:36.827Z,14.50
2017-08-18T00:15:04.339Z,11.40
2017-08-18T00:17:31.834Z,8.95
2017-08-18T00:20:00.118Z,15.60
2017-08-18T00:22:27.614Z,17.17
2017-08-18T00:24:55.145Z,17.17
2017-08-18T00:27:22.638Z,14.05
2017-08-18T00:29:50.143Z,13.02
2017-08-18T00:32:18.422Z,12.60
2017-08-18T00:34:46.686Z,11.45
2017-08-18T00:37:14.287Z,13.35
2017-08-18T00:39:41.790Z,13.07
2017-08-18T00:42:09.310Z,11.32
2017-08-18T00:44:36.813Z,9.80
2017-08-18T00:47:04.343Z,12.32
2017-08-18T00:49:31.853Z,14.75
2017-08-18T00:52:00.134Z,8.60
2017-08-18T00:54:28.397Z,12.50
2017-08-18T00:56:55.961Z,11.93
2017-08-18T00:59:24.230Z,11.15
2017-08-18T01:01:51.725Z,15.13
2017-08-18T01:04:19.249Z,8.88
2017-08-18T01:06:46.747Z,12.70
2017-08-18T01:09:14.266Z,14.10
2017-08-18T01:11:41.762Z,10.30
2017-08-18T01:14:09.270Z,9.40
2017-08-18T01:16:36.767Z,20.33
2017-08-18T01:19:04.286Z,16.42
2017-08-18T01:21:31.781Z,14.00
2017-08-18T01:23:59.303Z,12.98
2017-08-18T01:26:26.803Z,11.27
2017-08-18T01:28:54.342Z,11.68
2017-08-18T01:31:21.837Z,17.95
2017-08-18T01:33:49.335Z,9.65
2017-08-18T01:36:16.866Z,10.38
2017-08-18T01:38:44.378Z,9.70
2017-08-18T01:41:11.895Z,13.10
2017-08-18T01:43:39.390Z,11.35
2017-08-18T01:46:06.910Z,13.43
2017-08-18T01:48:34.414Z,13.13
2017-08-18T01:51:02.706Z,10.85
2017-08-18T01:53:30.978Z,14.13
2017-08-18T01:55:59.265Z,14.02
2017-08-18T01:58:26.770Z,12.15
2017-08-18T02:00:54.288Z,11.95
2017-08-18T02:03:21.786Z,16.85
2017-08-18T02:05:49.277Z,9.88
2017-08-18T02:08:16.802Z,10.73
2017-08-18T02:10:44.306Z,16.37
2017-08-18T02:13:12.594Z,14.77
2017-08-18T02:15:40.858Z,17.12
2017-08-18T02:18:09.147Z,15.25
2017-08-18T02:20:36.642Z,14.07
2017-08-18T02:23:04.174Z,13.75
2017-08-18T02:25:31.674Z,9.93
2017-08-18T02:27:59.189Z,10.70
2017-08-18T02:30:26.705Z,17.33
2017-08-18T02:32:54.197Z,10.48
2017-08-18T02:35:22.487Z,13.30
2017-08-18T02:37:49.983Z,13.00
2017-08-18T02:40:17.510Z,11.57
2017-08-18T02:42:45.006Z,15.23
2017-08-18T02:45:12.526Z,15.63
2017-08-18T02:47:40.037Z,12.20
2017-08-18T02:50:07.570Z,12.63
2017-08-18T02:52:35.070Z,12.43
2017-08-18T02:55:03.340Z,13.00
2017-08-18T02:57:30.858Z,12.32
2017-08-18T02:59:58.356Z,9.70
2017-08-18T03:02:25.879Z,11.73
2017-08-18T03:04:53.386Z,15.40
2017-08-18T03:07:21.674Z,11.50
2017-08-18T03:09:49.943Z,13.60
2017-08-18T03:12:18.222Z,12.02
2017-08-18T03:14:46.490Z,20.40
2017-08-18T03:17:14.010Z,14.65
2017-08-18T03:19:41.510Z,14.70
2017-08-18T03:22:09.046Z,19.45
2017-08-18T03:24:36.549Z,11.68
2017-08-18T03:27:04.051Z,20.35
2017-08-18T03:29:31.567Z,12.37
2017-08-18T03:31:59.059Z,11.98
2017-08-18T03:34:26.595Z,14.60
2017-08-18T03:36:54.097Z,12.95
2017-08-18T03:39:21.620Z,16.05
2017-08-18T03:41:49.119Z,21.95
2017-08-18T03:44:16.634Z,14.48
2017-08-18T03:46:44.139Z,17.75
2017-08-18T03:49:11.664Z,13.02
2017-08-18T03:51:39.162Z,12.32
2017-08-18T03:54:06.686Z,11.68
2017-08-18T03:56:34.190Z,15.32
2017-08-18T03:59:01.694Z,13.65
2017-08-18T04:01:29.210Z,11.12
2017-08-18T04:03:56.714Z,14.02
2017-08-18T04:06:24.227Z,15.52
2017-08-18T04:08:51.731Z,15.68
2017-08-18T04:11:19.254Z,13.00
2017-08-18T04:13:47.518Z,11.05
2017-08-18T04:16:15.040Z,13.48
2017-08-18T04:18:42.533Z,15.15
2017-08-18T04:21:10.046Z,12.82
2017-08-18T04:23:37.554Z,12.20
2017-08-18T04:26:05.074Z,18.75
2017-08-18T04:28:32.590Z,17.45
2017-08-18T04:31:00.871Z,12.48
2017-08-18T04:33:28.394Z,11.38
2017-08-18T04:35:55.898Z,17.27
2017-08-18T04:38:23.414Z,16.12
2017-08-18T04:40:50.914Z,14.15
2017-08-18T04:43:18.430Z,20.10
2017-08-18T04:45:45.934Z,12.93
2017-08-18T04:48:13.464Z,17.30
2017-08-18T04:50:40.975Z,12.43
2017-08-18T04:53:08.514Z,15.98
2017-08-18T04:55:36.027Z,13.02
2017-08-18T04:58:03.543Z,19.42
2017-08-18T05:00:31.074Z,24.35
2017-08-18T05:02:58.570Z,14.85
2017-08-18T05:05:26.082Z,19.85
2017-08-18T05:07:54.370Z,13.13
2017-08-18T05:10:22.663Z,14.52
2017-08-18T05:12:50.170Z,14.10
2017-08-18T05:15:17.686Z,15.32
2017-08-18T05:17:45.185Z,14.68
2017-08-18T05:20:12.732Z,13.65
2017-08-18T05:22:40.238Z,12.85
2017-08-18T05:25:07.767Z,11.65
2017-08-18T05:27:35.264Z,13.38
2017-08-18T05:30:03.562Z,19.35
2017-08-18T05:32:31.082Z,15.55
2017-08-18T05:34:58.586Z,15.25
2017-08-18T05:37:26.109Z,12.88
2017-08-18T05:39:54.375Z,16.92
2017-08-18T05:42:21.903Z,16.25
2017-08-18T05:44:49.407Z,18.75
2017-08-18T05:47:17.706Z,12.73
2017-08-18T05:49:45.205Z,14.77
2017-08-18T05:52:12.723Z,15.07
2017-08-18T05:54:40.226Z,16.08
2017-08-18T05:57:07.759Z,13.85
2017-08-18T05:59:35.268Z,14.35
2017-08-18T06:02:02.762Z,12.13
2017-08-18T06:04:30.302Z,10.35
2017-08-18T06:06:57.819Z,15.00
2017-08-18T06:09:25.341Z,11.10
2017-08-18T06:11:52.838Z,12.93
2017-08-18T06:14:20.434Z,13.50
2017-08-18T06:16:47.940Z,11.90
2017-08-18T06:19:15.462Z,13.75
2017-08-18T06:21:42.986Z,10.18
2017-08-18T06:24:10.506Z,19.85
2017-08-18T06:26:38.020Z,16.75
2017-08-18T06:29:05.535Z,9.95
2017-08-18T06:31:33.030Z,15.02
2017-08-18T06:34:00.557Z,9.82
2017-08-18T06:36:28.049Z,12.88
2017-08-18T06:38:55.557Z,15.45
2017-08-18T06:41:23.085Z,12.65
2017-08-18T06:43:51.354Z,11.85
2017-08-18T06:46:19.642Z,10.38
2017-08-18T06:48:47.149Z,11.50
2017-08-18T06:51:14.661Z,10.98
2017-08-18T06:53:42.939Z,11.65
2017-08-18T06:56:11.223Z,12.10
2017-08-18T06:58:38.722Z,10.75
2017-08-18T07:01:06.240Z,10.55
2017-08-18T07:03:33.742Z,10.18
2017-08-18T07:06:01.284Z,21.40
2017-08-18T07:08:28.781Z,9.40
2017-08-18T07:10:56.286Z,13.27
2017-08-18T07:13:23.805Z,12.70
2017-08-18T07:15:51.318Z,15.88
2017-08-18T07:18:18.838Z,8.25
2017-08-18T07:20:47.119Z,9.02
2017-08-18T07:23:15.402Z,8.38
2017-08-18T07:25:42.903Z,10.00
2017-08-18T07:28:10.418Z,8.50
2017-08-18T07:30:38.691Z,13.00
2017-08-18T07:33:06.975Z,10.07
2017-08-18T07:35:35.238Z,13.05
2017-08-18T07:38:03.522Z,15.38
2017-08-18T07:40:31.026Z,11.27
2017-08-18T07:42:58.551Z,11.18
2017-08-18T07:45:26.051Z,10.15
2017-08-18T07:47:53.552Z,8.88
2017-08-18T07:50:21.830Z,15.60
2017-08-18T07:52:50.090Z,17.12
2017-08-18T07:55:17.606Z,12.95
2017-08-18T07:57:45.103Z,13.68
2017-08-18T08:00:12.623Z,10.75
2017-08-18T08:02:40.113Z,7.65
2017-08-18T08:05:07.631Z,7.15
2017-08-18T08:07:35.129Z,9.70
2017-08-18T08:10:02.658Z,11.45
2017-08-18T08:12:30.170Z,15.77
2017-08-18T08:14:58.446Z,9.85
2017-08-18T08:17:26.735Z,11.38
2017-08-18T08:19:54.997Z,16.70
2017-08-18T08:22:23.285Z,10.50
2017-08-18T08:24:51.555Z,14.68
2017-08-18T08:27:19.862Z,6.82
2017-08-18T08:29:47.354Z,9.98
2017-08-18T08:32:14.870Z,8.65
2017-08-18T08:34:42.365Z,9.23
2017-08-18T08:37:09.909Z,12.43
2017-08-18T08:39:37.414Z,10.65
2017-08-18T08:42:05.698Z,10.50
2017-08-18T08:44:33.982Z,8.05
2017-08-18T08:47:02.250Z,9.32
2017-08-18T08:49:29.768Z,11.02
2017-08-18T08:51:57.266Z,13.25
2017-08-18T08:54:24.794Z,10.05
2017-08-18T08:56:52.285Z,8.88
2017-08-18T08:59:19.810Z,12.45
2017-08-18T09:01:47.306Z,7.60
2017-08-18T09:04:15.616Z,13.45
2017-08-18T09:06:43.126Z,7.25
2017-08-18T09:09:10.658Z,8.73
2017-08-18T09:11:38.158Z,9.98
2017-08-18T09:14:05.662Z,9.05
2017-08-18T09:16:33.186Z,10.10
2017-08-18T09:19:00.686Z,10.07
2017-08-18T09:21:28.205Z,8.00
2017-08-18T09:23:56.478Z,9.10
2017-08-18T09:26:24.003Z,16.73
2017-08-18T09:28:51.507Z,10.80
2017-08-18T09:31:19.037Z,8.43
2017-08-18T09:33:46.546Z,8.32
2017-08-18T09:36:14.057Z,9.65
2017-08-18T09:38:41.558Z,9.18
2017-08-18T09:41:09.086Z,7.32
2017-08-18T09:43:37.353Z,15.30
2017-08-18T09:46:04.901Z,11.73
2017-08-18T09:48:44.251Z,10.20
2017-08-18T09:54:42.072Z,7.95
2017-08-18T09:57:21.454Z,8.75
2017-08-18T09:59:48.949Z,8.38
2017-08-18T10:02:17.233Z,15.20
2017-08-18T10:04:45.522Z,9.15
2017-08-18T10:07:13.022Z,7.85
2017-08-18T10:09:40.546Z,9.45
2017-08-18T10:12:08.062Z,8.15
2017-08-18T10:14:35.594Z,9.73
2017-08-18T10:17:03.098Z,9.10
2017-08-18T10:19:30.626Z,10.27
2017-08-18T10:21:58.133Z,7.15
2017-08-18T10:24:25.681Z,8.90
2017-08-18T10:26:53.189Z,7.12
2017-08-18T10:29:21.458Z,10.60
2017-08-18T10:31:49.750Z,8.57
2017-08-18T10:34:17.260Z,6.22
2017-08-18T10:36:44.781Z,13.23
2017-08-18T10:39:12.293Z,6.85
2017-08-18T10:41:39.818Z,15.48
2017-08-18T10:44:07.321Z,8.90
2017-08-18T10:46:34.840Z,10.30
2017-08-18T10:49:02.345Z,7.63
2017-08-18T10:51:30.646Z,12.65
2017-08-18T10:53:58.166Z,7.33
2017-08-18T10:56:25.698Z,10.85
2017-08-18T10:58:53.197Z,6.03
2017-08-18T11:01:21.510Z,11.03
2017-08-18T11:03:49.027Z,11.35
2017-08-18T11:06:17.302Z,5.80
2017-08-18T11:08:44.815Z,8.47
2017-08-18T11:11:12.311Z,6.47
2017-08-18T11:13:39.847Z,9.95
2017-08-18T11:16:07.353Z,11.90
2017-08-18T11:18:35.650Z,8.93
2017-08-18T11:21:03.166Z,8.60
2017-08-18T11:23:30.695Z,9.23
2017-08-18T11:25:58.206Z,6.55
2017-08-18T11:28:25.727Z,9.80
2017-08-18T11:30:53.227Z,9.30
2017-08-18T11:33:21.522Z,4.93
2017-08-18T11:35:49.027Z,11.67
2017-08-18T11:38:16.543Z,9.00
2017-08-18T11:40:44.058Z,10.67
2017-08-18T11:43:11.583Z,10.03
2017-08-18T11:45:39.098Z,10.00
2017-08-18T11:48:07.366Z,6.00
2017-08-18T11:50:34.887Z,8.97
2017-08-18T11:53:02.386Z,5.13
2017-08-18T11:55:30.677Z,8.73
2017-08-18T11:57:58.179Z,9.17
2017-08-18T12:00:25.716Z,7.60
2017-08-18T12:02:53.223Z,21.87
2017-08-18T12:05:20.746Z,5.85
2017-08-18T12:07:48.258Z,7.07
2017-08-18T12:10:16.542Z,8.83
2017-08-18T12:12:44.803Z,9.13
2017-08-18T12:15:12.334Z,10.87
2017-08-18T12:17:39.850Z,13.50
2017-08-18T12:20:07.387Z,8.27
2017-08-18T12:22:34.902Z,11.43
2017-08-18T12:25:02.436Z,8.57
2017-08-18T12:27:29.953Z,10.20
2017-08-18T12:29:57.450Z,9.33
2017-08-18T12:32:24.979Z,6.07
2017-08-18T12:34:52.474Z,13.93
2017-08-18T12:37:19.995Z,10.63
2017-08-18T12:39:47.494Z,10.60
2017-08-18T12:42:15.010Z,9.87
2017-08-18T12:44:42.514Z,6.77
2017-08-18T12:47:10.054Z,5.83
2017-08-18T12:49:37.558Z,21.47
2017-08-18T12:52:05.074Z,7.10
2017-08-18T12:54:32.575Z,8.40
2017-08-18T12:57:00.098Z,8.18
2017-08-18T12:59:27.595Z,14.10
2017-08-18T13:01:55.130Z,13.70
2017-08-18T13:04:22.653Z,9.83
2017-08-18T13:06:50.157Z,8.37
2017-08-18T13:09:17.674Z,7.00
2017-08-18T13:11:45.954Z,7.17
2017-08-18T13:14:14.235Z,8.37
2017-08-18T13:16:42.507Z,6.87
2017-08-18T13:19:10.794Z,12.37
2017-08-18T13:21:39.061Z,8.87
2017-08-18T13:24:07.346Z,5.93
2017-08-18T13:26:34.859Z,11.07
2017-08-18T13:29:02.370Z,8.70
2017-08-18T13:31:29.886Z,6.50
2017-08-18T13:33:57.383Z,7.90
2017-08-18T13:36:24.894Z,7.23
2017-08-18T13:38:52.393Z,11.80
2017-08-18T13:41:20.678Z,8.50
2017-08-18T13:43:48.173Z,7.00
2017-08-18T13:46:15.686Z,9.13
2017-08-18T13:48:43.185Z,6.17
2017-08-18T13:51:10.702Z,9.53
2017-08-18T13:53:38.965Z,6.90
2017-08-18T13:56:06.490Z,7.50
2017-08-18T13:58:33.990Z,5.97
2017-08-18T14:01:01.494Z,8.40
2017-08-18T14:03:29.026Z,9.53
2017-08-18T14:05:56.522Z,9.47
2017-08-18T14:08:24.046Z,14.33
2017-08-18T14:10:51.550Z,13.40
2017-08-18T14:13:19.078Z,10.50
2017-08-18T14:15:46.579Z,5.90
2017-08-18T14:18:14.094Z,7.40
2017-08-18T14:20:41.593Z,10.93
2017-08-18T14:23:09.107Z,5.53
2017-08-18T14:25:42.200Z,6.83
2017-08-18T14:28:09.731Z,5.80
2017-08-18T14:30:38.003Z,9.70
2017-08-18T14:33:05.512Z,11.70
2017-08-18T14:35:33.030Z,5.20
2017-08-18T14:38:01.308Z,11.53
2017-08-18T14:40:29.591Z,8.70
2017-08-18T14:42:57.850Z,13.20
2017-08-18T14:45:25.358Z,5.50
2017-08-18T14:47:52.863Z,10.47
2017-08-18T14:50:20.386Z,9.30
2017-08-18T14:52:47.900Z,9.60
2017-08-18T14:55:16.198Z,9.00
2017-08-18T14:57:43.722Z,6.30
2017-08-18T15:00:11.242Z,5.20
2017-08-18T15:02:38.738Z,13.40
2017-08-18T15:05:06.270Z,11.90
2017-08-18T15:07:33.771Z,8.60
2017-08-18T15:10:02.054Z,16.93
2017-08-18T15:12:30.351Z,11.07
2017-08-18T15:14:57.849Z,6.80
2017-08-18T15:17:25.366Z,9.60
2017-08-18T15:19:52.859Z,5.40
2017-08-18T15:22:20.374Z,6.80
2017-08-18T15:24:47.870Z,7.57
2017-08-18T15:27:15.383Z,9.30
2017-08-18T15:29:43.646Z,9.10
2017-08-18T15:32:11.167Z,6.63
2017-08-18T15:34:38.670Z,7.33
2017-08-18T15:37:06.205Z,7.83
2017-08-18T15:39:33.708Z,7.77
2017-08-18T15:42:01.215Z,8.07
2017-08-18T15:44:28.758Z,5.80
2017-08-18T15:46:56.245Z,5.90
2017-08-18T15:49:23.766Z,4.80
2017-08-18T15:51:51.270Z,10.03
2017-08-18T15:54:18.783Z,5.97
2017-08-18T15:56:46.283Z,9.93
2017-08-18T15:59:13.810Z,8.87
2017-08-18T16:01:41.301Z,6.33
2017-08-18T16:04:08.813Z,6.47
2017-08-18T16:06:36.313Z,11.93
2017-08-18T16:09:03.842Z,8.30
2017-08-18T16:11:31.338Z,7.00
2017-08-18T16:13:58.838Z,6.00
2017-08-18T16:16:26.755Z,12.53
2017-08-18T16:18:54.259Z,7.23
2017-08-18T16:21:21.789Z,9.30
2017-08-18T16:23:49.290Z,6.33
2017-08-18T16:26:16.802Z,8.93
2017-08-18T16:28:44.302Z,5.97
2017-08-18T16:31:11.826Z,8.10
2017-08-18T16:33:39.318Z,5.67
2017-08-18T16:36:06.855Z,6.87
2017-08-18T16:38:34.360Z,6.47
2017-08-18T16:41:01.895Z,11.40
2017-08-18T16:43:29.394Z,6.50
2017-08-18T16:45:56.901Z,5.77
2017-08-18T16:48:24.398Z,5.00
2017-08-18T16:50:51.935Z,6.70
2017-08-18T16:53:19.437Z,6.83
2017-08-18T16:55:46.930Z,7.97
2017-08-18T16:58:15.220Z,7.50
2017-08-18T17:00:42.718Z,10.33
2017-08-18T17:03:10.263Z,8.80
2017-08-18T17:05:37.766Z,9.23
2017-08-18T17:08:05.283Z,5.33
2017-08-18T17:10:32.774Z,5.93
2017-08-18T17:13:00.305Z,8.67
2017-08-18T17:15:27.808Z,9.13
2017-08-18T17:17:55.307Z,10.17
2017-08-18T17:20:22.838Z,10.40
2017-08-18T17:22:50.342Z,7.40
2017-08-18T17:25:17.861Z,10.50
2017-08-18T17:27:46.126Z,11.27
2017-08-18T17:30:14.411Z,7.10
2017-08-18T17:32:42.681Z,13.30
2017-08-18T17:35:10.220Z,16.47
2017-08-18T17:37:37.750Z,13.60
2017-08-18T17:40:05.269Z,16.57
2017-08-18T17:42:33.534Z,18.53
2017-08-18T17:45:01.803Z,12.30
2017-08-18T17:47:30.118Z,17.60
2017-08-18T17:49:57.622Z,12.50
2017-08-18T17:52:25.149Z,13.30
2017-08-18T17:54:52.651Z,10.60
2017-08-18T17:57:20.217Z,14.10
2017-08-18T17:59:47.726Z,10.05
2017-08-18T18:02:15.247Z,9.45
2017-08-18T18:04:43.514Z,9.50
2017-08-18T18:07:11.817Z,6.62
2017-08-18T18:09:39.317Z,8.07
2017-08-18T18:12:06.819Z,9.45
2017-08-18T18:14:35.105Z,12.23
2017-08-18T18:17:02.606Z,10.85
2017-08-18T18:19:30.138Z,7.75
2017-08-18T18:21:57.662Z,8.68
2017-08-18T18:24:25.958Z,8.63
2017-08-18T18:26:53.457Z,7.45
2017-08-18T18:29:20.975Z,16.25
2017-08-18T18:31:48.479Z,10.63
2017-08-18T18:34:16.002Z,9.85
2017-08-18T18:36:43.498Z,6.07
2017-08-18T18:39:11.051Z,11.55
2017-08-18T18:41:38.546Z,6.10
2017-08-18T18:44:06.046Z,5.87
2017-08-18T18:46:33.561Z,4.47
2017-08-18T18:49:01.054Z,11.02
2017-08-18T18:51:28.572Z,5.90
2017-08-18T18:53:56.073Z,8.20
2017-08-18T18:56:23.589Z,10.57
2017-08-18T18:58:51.090Z,11.10
2017-08-18T19:01:18.619Z,13.23
2017-08-18T19:03:46.131Z,14.43
2017-08-18T19:06:13.654Z,13.27
2017-08-18T19:08:41.918Z,8.60
2017-08-18T19:11:09.450Z,5.25
2017-08-18T19:13:36.950Z,3.30
2017-08-18T19:16:04.453Z,3.95
2017-08-18T19:18:31.976Z,6.70
2017-08-18T19:20:59.477Z,8.90
2017-08-18T19:23:26.995Z,4.85
2017-08-18T19:25:54.507Z,9.02
2017-08-18T19:28:22.027Z,5.93
2017-08-18T19:30:49.530Z,11.15
2017-08-18T19:33:17.051Z,5.47
2017-08-18T19:35:44.555Z,4.72
2017-08-18T19:38:12.082Z,5.65
2017-08-18T19:40:39.578Z,5.00
2017-08-18T19:43:07.094Z,8.23
2017-08-18T19:45:34.598Z,3.28
2017-08-18T19:48:02.122Z,2.08
2017-08-18T19:50:29.614Z,5.12
2017-08-18T19:52:57.114Z,4.15
2017-08-18T19:55:24.638Z,3.70
2017-08-18T19:57:52.139Z,3.53
2017-08-18T20:00:19.666Z,4.03
2017-08-18T20:02:47.934Z,2.47
2017-08-18T20:05:15.449Z,3.75
2017-08-18T20:07:42.940Z,3.00
2017-08-18T20:10:10.463Z,5.20
2017-08-18T20:12:37.967Z,3.40
2017-08-18T20:15:05.482Z,2.58
2017-08-18T20:17:32.988Z,2.45
2017-08-18T20:20:00.508Z,1.67
2017-08-18T20:22:28.015Z,6.35
2017-08-18T20:24:56.286Z,2.22
2017-08-18T20:27:23.803Z,3.78
2017-08-18T20:29:51.294Z,1.33
2017-08-18T20:32:18.806Z,7.80
2017-08-18T20:34:46.302Z,2.62
2017-08-18T20:37:13.813Z,4.87
2017-08-18T20:39:41.312Z,3.95
2017-08-18T20:42:08.852Z,6.72
2017-08-18T20:44:36.346Z,5.50
2017-08-18T20:47:03.859Z,6.32
2017-08-18T20:49:31.345Z,1.85
2017-08-18T20:51:58.854Z,3.05
2017-08-18T20:54:26.358Z,6.32
2017-08-18T20:56:53.845Z,4.75
2017-08-18T20:59:21.367Z,2.28
2017-08-18T21:01:48.867Z,2.15
2017-08-18T21:04:17.151Z,3.17
2017-08-18T21:06:45.410Z,4.60
2017-08-18T21:09:12.924Z,2.67
2017-08-18T21:11:40.418Z,1.45
2017-08-18T21:14:07.939Z,6.18
2017-08-18T21:16:35.446Z,2.70
2017-08-18T21:19:02.942Z,2.35
2017-08-18T21:21:30.458Z,1.95
2017-08-18T21:23:57.954Z,4.57
2017-08-18T21:26:25.466Z,2.28
2017-08-18T21:28:52.958Z,2.85
2017-08-18T21:31:21.234Z,1.60
2017-08-18T21:33:49.510Z,1.00
2017-08-18T21:36:17.022Z,3.08
2017-08-18T21:38:44.514Z,1.67
2017-08-18T21:41:12.043Z,8.15
2017-08-18T21:43:39.542Z,1.27
2017-08-18T21:46:07.039Z,2.42
2017-08-18T21:48:34.549Z,5.97
2017-08-18T21:51:02.046Z,1.35
2017-08-18T21:53:29.559Z,2.00
2017-08-18T21:55:57.063Z,1.23
2017-08-18T21:58:24.578Z,4.00
2017-08-18T22:00:52.077Z,1.33
2017-08-18T22:03:19.598Z,2.65
2017-08-18T22:05:47.105Z,2.72
2017-08-18T22:08:14.602Z,3.62
2017-08-18T22:10:42.109Z,6.82
2017-08-18T22:13:09.602Z,1.20
2017-08-18T22:15:37.118Z,2.75
2017-08-18T22:18:05.377Z,2.65
2017-08-18T22:20:32.893Z,3.67
2017-08-18T22:23:00.382Z,2.55
2017-08-18T22:25:27.914Z,1.10
2017-08-18T22:27:55.409Z,1.50
2017-08-18T22:30:22.910Z,1.55
2017-08-18T22:32:50.422Z,2.20
2017-08-18T22:35:17.910Z,8.52
2017-08-18T22:37:46.193Z,2.05
2017-08-18T22:40:13.698Z,1.62
2017-08-18T22:42:41.218Z,3.75
2017-08-18T22:45:08.726Z,2.67
2017-08-18T22:47:36.248Z,1.87
2017-08-18T22:50:03.742Z,1.85
2017-08-18T22:52:31.265Z,1.80
2017-08-18T22:54:58.763Z,2.97
2017-08-18T22:57:26.259Z,4.00
2017-08-18T22:59:53.778Z,3.42
2017-08-18T23:02:21.281Z,2.05
2017-08-18T23:04:48.810Z,1.83
2017-08-18T23:07:16.306Z,1.60
2017-08-18T23:09:43.822Z,1.45
2017-08-18T23:12:11.314Z,1.25
2017-08-18T23:14:38.837Z,2.35
2017-08-18T23:17:06.330Z,2.05
2017-08-18T23:19:33.831Z,1.52
2017-08-18T23:22:01.351Z,1.35
2017-08-18T23:24:32.558Z,3.37
2017-08-18T23:27:00.064Z,1.40
2017-08-18T23:29:27.570Z,2.37
2017-08-18T23:31:55.094Z,1.08
2017-08-18T23:34:22.586Z,3.90
2017-08-18T23:36:50.111Z,1.12
2017-08-18T23:39:17.601Z,2.25
2017-08-18T23:41:45.093Z,4.93
2017-08-18T23:44:13.365Z,1.55
2017-08-18T23:46:41.621Z,1.10
2017-08-18T23:49:09.134Z,3.70
2017-08-18T23:51:36.630Z,1.50
2017-08-18T23:54:04.145Z,2.65
2017-08-18T23:56:31.638Z,1.70
2017-08-18T23:58:59.155Z,1.20
